sensor_id;sensor_type;location;lat;lon;timestamp;P1;durP1;ratioP1;P2;durP2;ratioP2
31974;SDS011;18500;43.618;1.474;2022-10-19T06:31:05;316.92;;;296.65;;
31974;SDS011;18500;43.618;1.474;2022-10-19T06:33:32;346.65;;;321.95;;
31974;SDS011;18500;43.618;1.474;2022-10-19T06:36:04;467.58;;;435.52;;
31974;SDS011;18500;43.618;1.474;2022-10-19T06:38:31;256.58;;;240.50;;
31974;SDS011;18500;43.618;1.474;2022-10-19T06:40:57;331.58;;;308.85;;
31974;SDS011;18500;43.618;1.474;2022-10-19T06:43:23;244.13;;;228.68;;
31974;SDS011;18500;43.618;1.474;2022-10-19T06:45:49;254.23;;;238.18;;
31974;SDS011;18500;43.618;1.474;2022-10-19T06:48:15;272.15;;;255.48;;
31974;SDS011;18500;43.618;1.474;2022-10-19T06:50:41;358.33;;;335.15;;
31974;SDS011;18500;43.618;1.474;2022-10-19T06:53:06;249.13;;;233.65;;
31974;SDS011;18500;43.618;1.474;2022-10-19T06:55:32;274.67;;;256.90;;
31974;SDS011;18500;43.618;1.474;2022-10-19T06:57:58;268.15;;;251.18;;
31974;SDS011;18500;43.618;1.474;2022-10-19T07:00:26;289.50;;;270.92;;
31974;SDS011;18500;43.618;1.474;2022-10-19T07:02:52;264.27;;;247.23;;
31974;SDS011;18500;43.618;1.474;2022-10-19T07:05:18;299.70;;;279.75;;
31974;SDS011;18500;43.618;1.474;2022-10-19T07:07:44;360.80;;;337.58;;
31974;SDS011;18500;43.618;1.474;2022-10-19T07:10:10;385.15;;;360.15;;
31974;SDS011;18500;43.618;1.474;2022-10-19T07:12:36;278.20;;;260.70;;
31974;SDS011;18500;43.618;1.474;2022-10-19T07:15:02;331.98;;;310.50;;
31974;SDS011;18500;43.618;1.474;2022-10-19T07:17:28;445.17;;;418.27;;
31974;SDS011;18500;43.618;1.474;2022-10-19T07:19:54;520.28;;;486.90;;
31974;SDS011;18500;43.618;1.474;2022-10-19T07:22:19;376.23;;;352.90;;
31974;SDS011;18500;43.618;1.474;2022-10-19T07:24:45;395.65;;;371.05;;
31974;SDS011;18500;43.618;1.474;2022-10-19T07:27:11;380.58;;;357.52;;
31974;SDS011;18500;43.618;1.474;2022-10-19T07:29:37;467.95;;;438.83;;
31974;SDS011;18500;43.618;1.474;2022-10-19T07:32:03;576.63;;;538.40;;
31974;SDS011;18500;43.618;1.474;2022-10-19T07:34:29;539.63;;;504.17;;
31974;SDS011;18500;43.618;1.474;2022-10-19T07:36:55;415.70;;;389.45;;
31974;SDS011;18500;43.618;1.474;2022-10-19T07:39:20;457.42;;;429.50;;
31974;SDS011;18500;43.618;1.474;2022-10-19T07:41:46;448.45;;;421.00;;
31974;SDS011;18500;43.618;1.474;2022-10-19T07:44:12;525.72;;;490.70;;
31974;SDS011;18500;43.618;1.474;2022-10-19T07:46:38;428.90;;;402.67;;
31974;SDS011;18500;43.618;1.474;2022-10-19T07:49:06;470.27;;;440.83;;
31974;SDS011;18500;43.618;1.474;2022-10-19T07:51:34;445.10;;;417.95;;
31974;SDS011;18500;43.618;1.474;2022-10-19T07:54:00;550.42;;;514.92;;
31974;SDS011;18500;43.618;1.474;2022-10-19T07:56:27;468.08;;;439.80;;
31974;SDS011;18500;43.618;1.474;2022-10-19T07:58:54;492.75;;;460.98;;
31974;SDS011;18500;43.618;1.474;2022-10-19T08:01:22;577.80;;;539.80;;
31974;SDS011;18500;43.618;1.474;2022-10-19T08:03:50;471.92;;;441.92;;
31974;SDS011;18500;43.618;1.474;2022-10-19T08:06:17;506.63;;;474.80;;
31974;SDS011;18500;43.618;1.474;2022-10-19T08:08:44;613.95;;;573.72;;
31974;SDS011;18500;43.618;1.474;2022-10-19T08:13:37;515.95;;;482.00;;
31974;SDS011;18500;43.618;1.474;2022-10-19T08:16:03;452.13;;;423.60;;
31974;SDS011;18500;43.618;1.474;2022-10-19T08:18:30;463.17;;;434.42;;
31974;SDS011;18500;43.618;1.474;2022-10-19T08:20:56;472.10;;;438.38;;
31974;SDS011;18500;43.618;1.474;2022-10-19T08:23:22;458.38;;;428.88;;
31974;SDS011;18500;43.618;1.474;2022-10-19T08:25:48;454.13;;;426.45;;
31974;SDS011;18500;43.618;1.474;2022-10-19T08:28:14;469.23;;;439.70;;
31974;SDS011;18500;43.618;1.474;2022-10-19T08:30:40;455.50;;;427.50;;
31974;SDS011;18500;43.618;1.474;2022-10-19T08:33:05;489.35;;;458.60;;
31974;SDS011;18500;43.618;1.474;2022-10-19T08:35:32;510.55;;;477.42;;
31974;SDS011;18500;43.618;1.474;2022-10-19T08:37:59;464.02;;;435.17;;
31974;SDS011;18500;43.618;1.474;2022-10-19T08:40:25;475.90;;;445.85;;
31974;SDS011;18500;43.618;1.474;2022-10-19T08:45:46;442.35;;;414.90;;
31974;SDS011;18500;43.618;1.474;2022-10-19T08:50:57;485.30;;;454.13;;
31974;SDS011;18500;43.618;1.474;2022-10-19T09:04:39;535.97;;;501.05;;
31974;SDS011;18500;43.618;1.474;2022-10-19T09:12:38;493.27;;;461.85;;
31974;SDS011;18500;43.618;1.474;2022-10-19T09:15:14;454.63;;;426.85;;
31974;SDS011;18500;43.618;1.474;2022-10-19T09:17:44;429.88;;;403.83;;
31974;SDS011;18500;43.618;1.474;2022-10-19T09:20:21;450.00;;;421.67;;
31974;SDS011;18500;43.618;1.474;2022-10-19T09:23:04;499.83;;;467.45;;
31974;SDS011;18500;43.618;1.474;2022-10-19T09:25:52;505.60;;;473.70;;
31974;SDS011;18500;43.618;1.474;2022-10-19T09:31:03;654.92;;;610.85;;
31974;SDS011;18500;43.618;1.474;2022-10-19T09:33:34;718.50;;;668.00;;
31974;SDS011;18500;43.618;1.474;2022-10-19T09:36:02;800.70;;;740.87;;
31974;SDS011;18500;43.618;1.474;2022-10-19T09:38:30;726.38;;;675.30;;
31974;SDS011;18500;43.618;1.474;2022-10-19T09:40:56;743.78;;;691.00;;
31974;SDS011;18500;43.618;1.474;2022-10-19T09:43:23;705.33;;;652.42;;
31974;SDS011;18500;43.618;1.474;2022-10-19T09:45:53;935.65;;;852.60;;
31974;SDS011;18500;43.618;1.474;2022-10-19T09:51:02;791.47;;;731.88;;
31974;SDS011;18500;43.618;1.474;2022-10-19T09:53:36;792.20;;;730.22;;
31974;SDS011;18500;43.618;1.474;2022-10-19T09:56:04;868.72;;;798.97;;
31974;SDS011;18500;43.618;1.474;2022-10-19T09:58:32;820.67;;;754.05;;
31974;SDS011;18500;43.618;1.474;2022-10-19T10:00:58;785.53;;;723.15;;
31974;SDS011;18500;43.618;1.474;2022-10-19T10:03:31;826.28;;;760.55;;
31974;SDS011;18500;43.618;1.474;2022-10-19T10:06:05;833.60;;;768.75;;
31974;SDS011;18500;43.618;1.474;2022-10-19T10:08:38;786.88;;;726.05;;
31974;SDS011;18500;43.618;1.474;2022-10-19T10:11:50;886.50;;;813.80;;
31974;SDS011;18500;43.618;1.474;2022-10-19T10:16:46;862.67;;;793.38;;
31974;SDS011;18500;43.618;1.474;2022-10-19T10:19:12;900.97;;;827.55;;
31974;SDS011;18500;43.618;1.474;2022-10-19T10:21:47;823.13;;;759.50;;
31974;SDS011;18500;43.618;1.474;2022-10-19T10:24:16;801.72;;;740.50;;
31974;SDS011;18500;43.618;1.474;2022-10-19T10:26:44;800.72;;;738.70;;
31974;SDS011;18500;43.618;1.474;2022-10-19T10:29:22;835.28;;;768.30;;
31974;SDS011;18500;43.618;1.474;2022-10-19T10:31:51;790.17;;;730.15;;
31974;SDS011;18500;43.618;1.474;2022-10-19T10:36:59;821.22;;;756.95;;
31974;SDS011;18500;43.618;1.474;2022-10-19T10:39:28;801.33;;;740.05;;
31974;SDS011;18500;43.618;1.474;2022-10-19T10:41:54;789.55;;;728.97;;
31974;SDS011;18500;43.618;1.474;2022-10-19T10:44:25;789.00;;;728.78;;
31974;SDS011;18500;43.618;1.474;2022-10-19T10:46:59;896.50;;;821.50;;
31974;SDS011;18500;43.618;1.474;2022-10-19T10:49:27;810.95;;;748.88;;
31974;SDS011;18500;43.618;1.474;2022-10-19T10:57:35;836.20;;;771.58;;
31974;SDS011;18500;43.618;1.474;2022-10-19T11:00:06;875.08;;;806.28;;
31974;SDS011;18500;43.618;1.474;2022-10-19T11:02:44;899.00;;;829.53;;
31974;SDS011;18500;43.618;1.474;2022-10-19T11:07:52;935.75;;;860.75;;
31974;SDS011;18500;43.618;1.474;2022-10-19T11:10:27;963.75;;;885.72;;
31974;SDS011;18500;43.618;1.474;2022-10-19T11:13:44;1078.68;;;974.58;;
31974;SDS011;18500;43.618;1.474;2022-10-19T11:16:10;974.10;;;892.13;;
31974;SDS011;18500;43.618;1.474;2022-10-19T11:18:41;959.75;;;881.70;;
31974;SDS011;18500;43.618;1.474;2022-10-19T11:40:21;1005.13;;;916.63;;
31974;SDS011;18500;43.618;1.474;2022-10-19T11:43:08;1070.95;;;971.85;;
31974;SDS011;18500;43.618;1.474;2022-10-19T11:45:58;1123.30;;;999.90;;
31974;SDS011;18500;43.618;1.474;2022-10-19T11:54:09;1082.20;;;980.25;;
31974;SDS011;18500;43.618;1.474;2022-10-19T11:57:22;1055.18;;;957.15;;
31974;SDS011;18500;43.618;1.474;2022-10-19T12:05:30;1036.97;;;944.03;;
31974;SDS011;18500;43.618;1.474;2022-10-19T12:08:04;1043.13;;;949.20;;
31974;SDS011;18500;43.618;1.474;2022-10-19T12:13:07;1014.03;;;923.92;;
31974;SDS011;18500;43.618;1.474;2022-10-19T12:15:37;1008.45;;;921.47;;
31974;SDS011;18500;43.618;1.474;2022-10-19T12:20:55;1031.00;;;938.45;;
31974;SDS011;18500;43.618;1.474;2022-10-19T12:23:31;1124.47;;;999.90;;
31974;SDS011;18500;43.618;1.474;2022-10-19T12:26:06;1147.50;;;999.90;;
31974;SDS011;18500;43.618;1.474;2022-10-19T12:28:35;1158.05;;;999.90;;
31974;SDS011;18500;43.618;1.474;2022-10-19T12:31:03;1164.80;;;999.90;;
31974;SDS011;18500;43.618;1.474;2022-10-19T12:33:32;1165.68;;;999.90;;
31974;SDS011;18500;43.618;1.474;2022-10-19T12:36:14;1148.97;;;999.90;;
31974;SDS011;18500;43.618;1.474;2022-10-19T12:38:51;1146.63;;;999.90;;
31974;SDS011;18500;43.618;1.474;2022-10-19T12:47:14;1153.22;;;999.90;;
31974;SDS011;18500;43.618;1.474;2022-10-19T12:49:53;1146.30;;;999.90;;
31974;SDS011;18500;43.618;1.474;2022-10-19T12:57:47;1122.07;;;999.90;;
31974;SDS011;18500;43.618;1.474;2022-10-19T13:00:21;1101.18;;;994.03;;
31974;SDS011;18500;43.618;1.474;2022-10-19T13:05:55;1090.63;;;985.80;;
31974;SDS011;18500;43.618;1.474;2022-10-19T13:08:27;1089.43;;;984.15;;
31974;SDS011;18500;43.618;1.474;2022-10-19T13:11:05;1075.30;;;972.38;;
31974;SDS011;18500;43.618;1.474;2022-10-19T13:19:18;1083.00;;;979.92;;
31974;SDS011;18500;43.618;1.474;2022-10-19T13:29:38;1129.03;;;999.90;;
31974;SDS011;18500;43.618;1.474;2022-10-19T13:37:46;1107.85;;;997.22;;
31974;SDS011;18500;43.618;1.474;2022-10-19T13:46:42;1138.22;;;999.90;;
31974;SDS011;18500;43.618;1.474;2022-10-19T13:49:52;1132.00;;;999.90;;
31974;SDS011;18500;43.618;1.474;2022-10-19T13:55:23;1137.15;;;999.90;;
31974;SDS011;18500;43.618;1.474;2022-10-19T14:03:15;1108.25;;;999.85;;
31974;SDS011;18500;43.618;1.474;2022-10-19T14:11:41;1134.47;;;999.90;;
31974;SDS011;18500;43.618;1.474;2022-10-19T14:14:18;1127.40;;;999.90;;
31974;SDS011;18500;43.618;1.474;2022-10-19T14:19:39;1141.55;;;999.90;;
31974;SDS011;18500;43.618;1.474;2022-10-19T14:22:23;1144.65;;;999.90;;
31974;SDS011;18500;43.618;1.474;2022-10-19T14:27:40;1054.85;;;957.92;;
31974;SDS011;18500;43.618;1.474;2022-10-19T14:30:19;1032.32;;;939.17;;
31974;SDS011;18500;43.618;1.474;2022-10-19T14:32:49;999.33;;;911.88;;
31974;SDS011;18500;43.618;1.474;2022-10-19T14:35:19;1026.97;;;934.85;;
31974;SDS011;18500;43.618;1.474;2022-10-19T14:37:48;1010.00;;;921.15;;
31974;SDS011;18500;43.618;1.474;2022-10-19T14:42:51;956.08;;;874.50;;
31974;SDS011;18500;43.618;1.474;2022-10-19T14:45:17;1012.88;;;922.42;;
31974;SDS011;18500;43.618;1.474;2022-10-19T14:50:22;937.28;;;857.67;;
31974;SDS011;18500;43.618;1.474;2022-10-19T14:52:53;958.13;;;877.38;;
31974;SDS011;18500;43.618;1.474;2022-10-19T14:55:30;930.88;;;852.13;;
31974;SDS011;18500;43.618;1.474;2022-10-19T14:57:59;988.60;;;904.17;;
31974;SDS011;18500;43.618;1.474;2022-10-19T15:00:26;911.28;;;836.95;;
31974;SDS011;18500;43.618;1.474;2022-10-19T15:02:59;908.85;;;835.10;;
31974;SDS011;18500;43.618;1.474;2022-10-19T15:05:30;909.60;;;834.70;;
31974;SDS011;18500;43.618;1.474;2022-10-19T15:08:04;928.17;;;853.25;;
31974;SDS011;18500;43.618;1.474;2022-10-19T15:10:41;929.90;;;853.20;;
31974;SDS011;18500;43.618;1.474;2022-10-19T15:13:15;910.78;;;837.88;;
31974;SDS011;18500;43.618;1.474;2022-10-19T15:15:43;903.88;;;830.72;;
31974;SDS011;18500;43.618;1.474;2022-10-19T15:18:32;902.25;;;830.47;;
31974;SDS011;18500;43.618;1.474;2022-10-19T15:21:03;888.08;;;818.95;;
31974;SDS011;18500;43.618;1.474;2022-10-19T15:23:40;888.03;;;818.30;;
31974;SDS011;18500;43.618;1.474;2022-10-19T15:26:20;922.90;;;847.38;;
31974;SDS011;18500;43.618;1.474;2022-10-19T15:28:53;878.78;;;809.78;;
31974;SDS011;18500;43.618;1.474;2022-10-19T15:31:23;867.10;;;800.33;;
31974;SDS011;18500;43.618;1.474;2022-10-19T15:33:54;879.55;;;808.95;;
31974;SDS011;18500;43.618;1.474;2022-10-19T15:36:22;899.22;;;826.20;;
31974;SDS011;18500;43.618;1.474;2022-10-19T15:41:27;992.58;;;896.17;;
31974;SDS011;18500;43.618;1.474;2022-10-19T15:43:55;755.67;;;699.83;;
31974;SDS011;18500;43.618;1.474;2022-10-19T15:48:50;766.05;;;707.35;;
31974;SDS011;18500;43.618;1.474;2022-10-19T15:53:54;938.65;;;854.92;;
31974;SDS011;18500;43.618;1.474;2022-10-19T15:56:31;741.95;;;685.47;;
31974;SDS011;18500;43.618;1.474;2022-10-19T15:58:59;735.28;;;680.05;;
31974;SDS011;18500;43.618;1.474;2022-10-19T16:01:26;808.83;;;742.83;;
31974;SDS011;18500;43.618;1.474;2022-10-19T16:03:54;845.75;;;771.88;;
31974;SDS011;18500;43.618;1.474;2022-10-19T16:06:20;772.75;;;713.35;;
31974;SDS011;18500;43.618;1.474;2022-10-19T16:08:48;675.17;;;624.88;;
31974;SDS011;18500;43.618;1.474;2022-10-19T16:11:18;706.22;;;654.72;;
31974;SDS011;18500;43.618;1.474;2022-10-19T16:13:45;718.08;;;665.10;;
31974;SDS011;18500;43.618;1.474;2022-10-19T16:16:12;688.67;;;638.47;;
31974;SDS011;18500;43.618;1.474;2022-10-19T16:18:45;714.65;;;660.28;;
31974;SDS011;18500;43.618;1.474;2022-10-19T16:21:11;723.45;;;670.75;;
31974;SDS011;18500;43.618;1.474;2022-10-19T16:23:37;697.63;;;647.38;;
31974;SDS011;18500;43.618;1.474;2022-10-19T16:26:04;753.00;;;697.70;;
31974;SDS011;18500;43.618;1.474;2022-10-19T16:28:30;677.80;;;630.10;;
31974;SDS011;18500;43.618;1.474;2022-10-19T16:30:56;685.92;;;637.97;;
31974;SDS011;18500;43.618;1.474;2022-10-19T16:33:22;632.28;;;589.05;;
31974;SDS011;18500;43.618;1.474;2022-10-19T16:35:48;639.90;;;595.35;;
31974;SDS011;18500;43.618;1.474;2022-10-19T16:38:13;709.33;;;655.88;;
31974;SDS011;18500;43.618;1.474;2022-10-19T16:40:39;587.63;;;547.85;;
31974;SDS011;18500;43.618;1.474;2022-10-19T16:43:05;593.22;;;554.25;;
31974;SDS011;18500;43.618;1.474;2022-10-19T16:45:30;588.13;;;549.28;;
31974;SDS011;18500;43.618;1.474;2022-10-19T16:47:57;580.70;;;541.63;;
31974;SDS011;18500;43.618;1.474;2022-10-19T16:50:22;597.63;;;556.28;;
31974;SDS011;18500;43.618;1.474;2022-10-19T16:53:08;600.47;;;559.22;;
31974;SDS011;18500;43.618;1.474;2022-10-19T16:55:35;653.00;;;606.40;;
31974;SDS011;18500;43.618;1.474;2022-10-19T16:58:04;600.88;;;559.47;;
31974;SDS011;18500;43.618;1.474;2022-10-19T17:00:30;577.60;;;539.60;;
31974;SDS011;18500;43.618;1.474;2022-10-19T17:02:56;586.45;;;546.70;;
31974;SDS011;18500;43.618;1.474;2022-10-19T17:05:22;577.00;;;538.22;;
31974;SDS011;18500;43.618;1.474;2022-10-19T17:07:48;597.97;;;556.17;;
31974;SDS011;18500;43.618;1.474;2022-10-19T17:10:13;579.28;;;540.63;;
31974;SDS011;18500;43.618;1.474;2022-10-19T17:12:40;629.10;;;585.35;;
31974;SDS011;18500;43.618;1.474;2022-10-19T17:15:07;690.72;;;642.00;;
31974;SDS011;18500;43.618;1.474;2022-10-19T17:17:33;587.08;;;545.05;;
31974;SDS011;18500;43.618;1.474;2022-10-19T17:19:59;561.88;;;522.85;;
31974;SDS011;18500;43.618;1.474;2022-10-19T17:22:24;531.58;;;496.27;;
31974;SDS011;18500;43.618;1.474;2022-10-19T17:24:50;601.75;;;560.83;;
31974;SDS011;18500;43.618;1.474;2022-10-19T17:27:16;631.38;;;587.83;;
31974;SDS011;18500;43.618;1.474;2022-10-19T17:29:41;757.92;;;699.85;;
31974;SDS011;18500;43.618;1.474;2022-10-19T17:32:07;542.25;;;505.90;;
31974;SDS011;18500;43.618;1.474;2022-10-19T17:34:33;595.97;;;553.83;;
31974;SDS011;18500;43.618;1.474;2022-10-19T17:36:58;499.88;;;467.38;;
31974;SDS011;18500;43.618;1.474;2022-10-19T17:39:24;485.27;;;454.00;;
31974;SDS011;18500;43.618;1.474;2022-10-19T17:41:50;514.88;;;481.25;;
31974;SDS011;18500;43.618;1.474;2022-10-19T17:44:18;554.50;;;518.08;;
31974;SDS011;18500;43.618;1.474;2022-10-19T17:46:45;551.30;;;514.88;;
31974;SDS011;18500;43.618;1.474;2022-10-19T17:49:11;481.90;;;451.10;;
31974;SDS011;18500;43.618;1.474;2022-10-19T17:51:37;485.17;;;453.45;;
31974;SDS011;18500;43.618;1.474;2022-10-19T17:54:04;497.83;;;465.23;;
31974;SDS011;18500;43.618;1.474;2022-10-19T17:56:32;508.75;;;476.13;;
31974;SDS011;18500;43.618;1.474;2022-10-19T17:58:58;468.98;;;438.45;;
31974;SDS011;18500;43.618;1.474;2022-10-19T18:01:26;471.77;;;440.38;;
31974;SDS011;18500;43.618;1.474;2022-10-19T18:03:52;459.00;;;429.33;;
31974;SDS011;18500;43.618;1.474;2022-10-19T18:06:28;440.83;;;412.83;;
31974;SDS011;18500;43.618;1.474;2022-10-19T18:08:56;447.33;;;418.77;;
31974;SDS011;18500;43.618;1.474;2022-10-19T18:11:27;486.77;;;454.55;;
31974;SDS011;18500;43.618;1.474;2022-10-19T18:13:56;475.08;;;443.33;;
31974;SDS011;18500;43.618;1.474;2022-10-19T18:16:28;687.83;;;630.75;;
31974;SDS011;18500;43.618;1.474;2022-10-19T18:18:56;498.33;;;466.77;;
31974;SDS011;18500;43.618;1.474;2022-10-19T18:21:24;447.40;;;419.02;;
31974;SDS011;18500;43.618;1.474;2022-10-19T18:23:55;481.70;;;449.20;;
31974;SDS011;18500;43.618;1.474;2022-10-19T18:26:23;479.33;;;447.80;;
31974;SDS011;18500;43.618;1.474;2022-10-19T18:28:50;443.98;;;415.95;;
31974;SDS011;18500;43.618;1.474;2022-10-19T18:31:22;456.40;;;427.17;;
31974;SDS011;18500;43.618;1.474;2022-10-19T18:34:00;466.75;;;436.88;;
31974;SDS011;18500;43.618;1.474;2022-10-19T18:36:27;477.60;;;446.30;;
31974;SDS011;18500;43.618;1.474;2022-10-19T18:38:54;561.75;;;523.33;;
31974;SDS011;18500;43.618;1.474;2022-10-19T18:41:21;675.60;;;622.40;;
31974;SDS011;18500;43.618;1.474;2022-10-19T18:43:55;519.97;;;484.75;;
31974;SDS011;18500;43.618;1.474;2022-10-19T18:46:27;423.75;;;397.63;;
31974;SDS011;18500;43.618;1.474;2022-10-19T18:48:53;434.92;;;407.13;;
31974;SDS011;18500;43.618;1.474;2022-10-19T18:51:20;488.60;;;455.20;;
31974;SDS011;18500;43.618;1.474;2022-10-19T18:53:46;433.27;;;405.25;;
31974;SDS011;18500;43.618;1.474;2022-10-19T18:56:13;394.63;;;369.98;;
31974;SDS011;18500;43.618;1.474;2022-10-19T18:58:40;661.30;;;614.45;;
31974;SDS011;18500;43.618;1.474;2022-10-19T19:01:07;420.35;;;393.73;;
31974;SDS011;18500;43.618;1.474;2022-10-19T19:03:42;446.60;;;418.48;;
31974;SDS011;18500;43.618;1.474;2022-10-19T19:06:13;478.77;;;447.48;;
31974;SDS011;18500;43.618;1.474;2022-10-19T19:08:41;496.58;;;463.63;;
31974;SDS011;18500;43.618;1.474;2022-10-19T19:13:39;418.15;;;391.13;;
31974;SDS011;18500;43.618;1.474;2022-10-19T19:16:06;407.13;;;381.63;;
31974;SDS011;18500;43.618;1.474;2022-10-19T19:18:32;402.45;;;376.52;;
31974;SDS011;18500;43.618;1.474;2022-10-19T19:20:59;363.77;;;341.35;;
31974;SDS011;18500;43.618;1.474;2022-10-19T19:23:26;399.17;;;373.08;;
31974;SDS011;18500;43.618;1.474;2022-10-19T19:25:51;391.10;;;366.23;;
31974;SDS011;18500;43.618;1.474;2022-10-19T19:28:18;575.55;;;534.15;;
31974;SDS011;18500;43.618;1.474;2022-10-19T19:30:44;621.80;;;571.13;;
31974;SDS011;18500;43.618;1.474;2022-10-19T19:33:10;393.00;;;367.45;;
31974;SDS011;18500;43.618;1.474;2022-10-19T19:35:46;467.25;;;436.83;;
31974;SDS011;18500;43.618;1.474;2022-10-19T19:38:13;360.27;;;336.70;;
31974;SDS011;18500;43.618;1.474;2022-10-19T19:40:40;447.95;;;420.60;;
31974;SDS011;18500;43.618;1.474;2022-10-19T19:43:07;450.80;;;423.02;;
31974;SDS011;18500;43.618;1.474;2022-10-19T19:45:34;414.48;;;388.35;;
31974;SDS011;18500;43.618;1.474;2022-10-19T19:48:00;410.08;;;384.67;;
31974;SDS011;18500;43.618;1.474;2022-10-19T19:50:27;481.35;;;450.60;;
31974;SDS011;18500;43.618;1.474;2022-10-19T19:52:53;452.25;;;423.55;;
31974;SDS011;18500;43.618;1.474;2022-10-19T19:55:21;421.45;;;394.95;;
31974;SDS011;18500;43.618;1.474;2022-10-19T19:57:46;418.15;;;391.88;;
31974;SDS011;18500;43.618;1.474;2022-10-19T20:00:14;438.75;;;411.08;;
31974;SDS011;18500;43.618;1.474;2022-10-19T20:02:41;409.35;;;382.88;;
31974;SDS011;18500;43.618;1.474;2022-10-19T20:05:07;434.13;;;406.88;;
31974;SDS011;18500;43.618;1.474;2022-10-19T20:07:33;462.60;;;432.75;;
31974;SDS011;18500;43.618;1.474;2022-10-19T20:09:59;356.75;;;333.52;;
31974;SDS011;18500;43.618;1.474;2022-10-19T20:12:24;437.50;;;407.08;;
31974;SDS011;18500;43.618;1.474;2022-10-19T20:14:50;342.27;;;321.10;;
31974;SDS011;18500;43.618;1.474;2022-10-19T20:17:16;648.78;;;592.72;;
31974;SDS011;18500;43.618;1.474;2022-10-19T20:19:47;401.43;;;375.43;;
31974;SDS011;18500;43.618;1.474;2022-10-19T20:22:13;287.88;;;269.27;;
31974;SDS011;18500;43.618;1.474;2022-10-19T20:24:39;373.50;;;346.90;;
31974;SDS011;18500;43.618;1.474;2022-10-19T20:27:05;358.35;;;334.55;;
31974;SDS011;18500;43.618;1.474;2022-10-19T20:29:30;279.10;;;260.52;;
31974;SDS011;18500;43.618;1.474;2022-10-19T20:31:56;520.72;;;483.70;;
31974;SDS011;18500;43.618;1.474;2022-10-19T20:34:21;306.67;;;286.17;;
31974;SDS011;18500;43.618;1.474;2022-10-19T20:36:47;265.48;;;247.23;;
31974;SDS011;18500;43.618;1.474;2022-10-19T20:39:13;277.85;;;259.83;;
31974;SDS011;18500;43.618;1.474;2022-10-19T20:41:38;254.25;;;236.93;;
31974;SDS011;18500;43.618;1.474;2022-10-19T20:44:04;272.52;;;254.13;;
31974;SDS011;18500;43.618;1.474;2022-10-19T20:46:30;234.27;;;218.02;;
31974;SDS011;18500;43.618;1.474;2022-10-19T20:48:57;214.13;;;198.82;;
31974;SDS011;18500;43.618;1.474;2022-10-19T20:51:25;429.23;;;399.38;;
31974;SDS011;18500;43.618;1.474;2022-10-19T20:53:53;208.88;;;194.18;;
31974;SDS011;18500;43.618;1.474;2022-10-19T20:56:20;233.88;;;218.07;;
31974;SDS011;18500;43.618;1.474;2022-10-19T20:59:21;200.98;;;186.15;;
31974;SDS011;18500;43.618;1.474;2022-10-19T21:01:41;203.73;;;189.40;;
31974;SDS011;18500;43.618;1.474;2022-10-19T21:04:08;192.25;;;178.38;;
31974;SDS011;18500;43.618;1.474;2022-10-19T21:06:39;196.50;;;182.93;;
31974;SDS011;18500;43.618;1.474;2022-10-19T21:09:06;213.20;;;199.18;;
31974;SDS011;18500;43.618;1.474;2022-10-19T21:11:33;195.73;;;181.30;;
31974;SDS011;18500;43.618;1.474;2022-10-19T21:14:02;189.18;;;175.75;;
